createdAt,value
2019-05-10T00:01:22.865Z,89.14
2019-05-10T00:04:27.105Z,88.93
2019-05-10T00:07:31.486Z,87.14
2019-05-10T00:10:07.999Z,86.96
2019-05-10T00:12:47.339Z,87.55
2019-05-10T00:15:16.479Z,88.06
2019-05-10T00:17:44.189Z,88.72
2019-05-10T00:20:11.775Z,89.03
2019-05-10T00:22:38.904Z,89.30
2019-05-10T00:25:09.143Z,89.76
2019-05-10T00:27:36.270Z,89.98
2019-05-10T00:30:04.532Z,90.31
2019-05-10T00:32:31.792Z,90.43
2019-05-10T00:35:00.085Z,90.50
2019-05-10T00:37:27.521Z,90.83
2019-05-10T00:39:54.889Z,91.07
2019-05-10T00:42:23.234Z,91.35
2019-05-10T00:44:57.927Z,91.65
2019-05-10T00:47:29.983Z,91.95
2019-05-10T00:49:57.707Z,92.28
2019-05-10T00:52:28.468Z,92.69
2019-05-10T00:54:56.087Z,92.92
2019-05-10T00:57:23.795Z,93.11
2019-05-10T00:59:52.915Z,93.19
2019-05-10T01:02:23.828Z,93.32
2019-05-10T01:04:54.666Z,93.27
2019-05-10T01:07:23.662Z,93.17
2019-05-10T01:09:51.426Z,93.21
2019-05-10T01:12:19.269Z,93.30
2019-05-10T01:14:46.830Z,93.33
2019-05-10T01:17:15.208Z,93.25
2019-05-10T01:19:42.740Z,93.23
2019-05-10T01:22:10.301Z,93.15
2019-05-10T01:24:39.622Z,93.00
2019-05-10T01:27:07.015Z,92.82
2019-05-10T01:29:37.551Z,92.60
2019-05-10T01:32:10.628Z,92.36
2019-05-10T01:34:38.055Z,92.17
2019-05-10T01:37:10.881Z,91.82
2019-05-10T01:39:39.095Z,91.50
2019-05-10T01:42:08.185Z,91.18
2019-05-10T01:44:37.310Z,89.82
2019-05-10T01:47:04.638Z,88.12
2019-05-10T01:49:32.223Z,86.76
2019-05-10T01:51:59.740Z,86.21
2019-05-10T01:54:27.033Z,86.10
2019-05-10T01:56:54.318Z,85.85
2019-05-10T01:59:21.726Z,84.48
2019-05-10T02:01:48.983Z,83.88
2019-05-10T02:04:17.685Z,84.23
2019-05-10T02:07:03.627Z,84.59
2019-05-10T02:09:35.959Z,85.01
2019-05-10T02:12:03.485Z,85.54
2019-05-10T02:14:30.803Z,86.16
2019-05-10T02:16:58.719Z,86.33
2019-05-10T02:19:29.554Z,86.53
2019-05-10T02:21:57.411Z,87.09
2019-05-10T02:24:24.917Z,87.07
2019-05-10T02:26:53.016Z,86.57
2019-05-10T02:29:20.586Z,86.15
2019-05-10T02:31:48.058Z,86.01
2019-05-10T02:34:25.636Z,86.14
2019-05-10T02:36:56.469Z,86.56
2019-05-10T02:39:27.681Z,86.97
2019-05-10T02:41:58.837Z,87.38
2019-05-10T02:44:36.288Z,87.92
2019-05-10T02:47:33.439Z,88.68
2019-05-10T02:50:04.181Z,89.28
2019-05-10T02:53:06.245Z,89.68
2019-05-10T02:55:47.205Z,89.96
2019-05-10T02:58:46.726Z,90.57
2019-05-10T03:02:28.477Z,90.79
2019-05-10T03:09:37.993Z,90.89
2019-05-10T03:11:52.477Z,91.29
2019-05-10T03:21:19.087Z,92.07
2019-05-10T03:24:27.962Z,92.38
2019-05-10T03:26:58.011Z,92.65
2019-05-10T03:30:01.079Z,92.84
2019-05-10T03:32:27.473Z,92.90
2019-05-10T03:34:54.701Z,92.94
2019-05-10T03:37:33.050Z,92.98
2019-05-10T03:40:01.115Z,93.14
2019-05-10T03:42:42.068Z,93.24
2019-05-10T03:45:13.436Z,93.26
2019-05-10T03:47:40.872Z,93.28
2019-05-10T03:50:14.104Z,93.32
2019-05-10T03:52:51.391Z,93.43
2019-05-10T03:55:17.683Z,93.51
2019-05-10T03:57:45.834Z,93.63
2019-05-10T04:00:21.680Z,93.59
2019-05-10T04:02:52.064Z,93.66
2019-05-10T04:05:23.660Z,93.72
2019-05-10T04:08:03.031Z,93.71
2019-05-10T04:10:30.953Z,93.75
2019-05-10T04:13:01.538Z,93.83
2019-05-10T04:15:31.600Z,93.94
2019-05-10T04:18:01.562Z,94.02
2019-05-10T04:20:41.837Z,94.12
2019-05-10T04:23:15.600Z,94.22
2019-05-10T04:25:53.476Z,94.26
2019-05-10T04:28:28.482Z,94.29
2019-05-10T04:31:00.482Z,94.21
2019-05-10T04:33:31.798Z,94.05
2019-05-10T04:36:03.869Z,93.81
2019-05-10T04:38:37.955Z,93.15
2019-05-10T04:41:18.574Z,92.34
2019-05-10T04:43:47.852Z,92.23
2019-05-10T04:46:15.363Z,91.29
2019-05-10T04:48:42.575Z,72.21
2019-05-10T04:51:09.851Z,59.92
2019-05-10T04:53:37.181Z,54.04
2019-05-10T04:56:04.955Z,48.02
2019-05-10T04:58:32.973Z,44.01
2019-05-10T05:01:00.291Z,42.88
2019-05-10T05:03:27.591Z,44.79
2019-05-10T05:05:54.944Z,50.31
2019-05-10T05:08:22.588Z,47.57
2019-05-10T05:10:49.992Z,42.76
2019-05-10T05:13:18.046Z,39.94
2019-05-10T05:15:45.412Z,43.38
2019-05-10T05:18:12.806Z,48.55
2019-05-10T05:20:40.196Z,53.35
2019-05-10T05:23:07.503Z,56.73
2019-05-10T05:25:40.122Z,59.38
2019-05-10T05:28:07.853Z,61.66
2019-05-10T05:30:34.140Z,59.64
2019-05-10T05:33:03.642Z,47.06
2019-05-10T05:35:31.029Z,39.91
2019-05-10T05:37:58.451Z,35.16
2019-05-10T05:40:27.186Z,31.65
2019-05-10T05:42:55.341Z,29.06
2019-05-10T05:45:22.787Z,28.65
2019-05-10T05:47:51.211Z,28.90
2019-05-10T05:53:17.185Z,24.41
2019-05-10T05:55:44.945Z,21.98
2019-05-10T05:58:25.707Z,20.73
2019-05-10T06:00:45.045Z,20.19
2019-05-10T06:03:30.223Z,18.37
2019-05-10T06:06:01.735Z,17.60
2019-05-10T06:08:54.473Z,16.65
2019-05-10T06:11:29.635Z,15.60
2019-05-10T06:14:10.806Z,16.13
2019-05-10T06:16:45.270Z,17.48
2019-05-10T06:19:29.516Z,16.77
2019-05-10T06:22:07.723Z,15.91
2019-05-10T06:24:39.166Z,16.68
2019-05-10T06:27:07.394Z,19.07
2019-05-10T06:30:01.244Z,20.74
2019-05-10T06:32:29.323Z,22.90
2019-05-10T06:35:20.890Z,26.25
2019-05-10T06:37:53.082Z,27.76
2019-05-10T06:40:32.694Z,26.24
2019-05-10T06:42:55.331Z,26.98
2019-05-10T06:45:24.362Z,24.30
2019-05-10T06:48:08.740Z,21.46
2019-05-10T06:50:53.265Z,18.85
2019-05-10T06:53:31.310Z,18.95
2019-05-10T06:56:08.733Z,20.18
2019-05-10T06:58:41.121Z,19.05
2019-05-10T07:01:15.910Z,18.28
2019-05-10T07:03:43.937Z,18.12
2019-05-10T07:06:49.626Z,16.96
2019-05-10T07:12:21.740Z,15.49
2019-05-10T07:15:03.591Z,15.08
2019-05-10T07:18:05.791Z,16.65
2019-05-10T07:20:49.798Z,15.78
2019-05-10T07:23:30.195Z,14.69
2019-05-10T07:25:59.849Z,13.35
2019-05-10T07:28:40.048Z,11.57
2019-05-10T07:31:08.461Z,9.30
2019-05-10T07:34:15.566Z,9.30
2019-05-10T07:36:52.352Z,9.44
2019-05-10T07:39:24.882Z,8.79
2019-05-10T07:42:00.360Z,10.45
2019-05-10T07:44:27.323Z,10.45
2019-05-10T07:47:03.187Z,11.20
2019-05-10T07:49:36.977Z,10.97
2019-05-10T07:52:12.452Z,10.42
2019-05-10T07:54:48.147Z,9.97
2019-05-10T07:57:24.792Z,9.31
2019-05-10T08:02:30.557Z,10.04
2019-05-10T08:05:14.019Z,11.14
2019-05-10T08:07:41.771Z,10.65
2019-05-10T08:10:10.327Z,9.38
2019-05-10T08:12:45.575Z,10.61
2019-05-10T08:15:13.000Z,11.05
2019-05-10T08:17:45.347Z,11.17
2019-05-10T08:20:20.397Z,12.21
2019-05-10T08:22:41.393Z,12.77
2019-05-10T08:25:12.690Z,11.93
2019-05-10T08:27:44.074Z,11.00
2019-05-10T08:30:22.631Z,10.45
2019-05-10T08:32:38.959Z,9.57
2019-05-10T08:35:15.991Z,9.93
2019-05-10T08:37:37.962Z,10.47
2019-05-10T08:40:06.970Z,10.14
2019-05-10T08:42:44.199Z,10.92
2019-05-10T08:45:08.646Z,11.49
2019-05-10T08:47:33.610Z,11.00
2019-05-10T08:50:17.953Z,11.12
2019-05-10T08:52:33.919Z,12.65
2019-05-10T08:55:02.639Z,13.03
2019-05-10T08:57:29.481Z,11.65
2019-05-10T09:00:06.601Z,9.91
2019-05-10T09:02:39.081Z,9.39
2019-05-10T09:05:08.589Z,9.56
2019-05-10T09:07:39.003Z,8.92
2019-05-10T09:10:12.866Z,8.75
2019-05-10T09:12:50.286Z,9.70
2019-05-10T09:15:15.957Z,11.32
2019-05-10T09:17:43.325Z,10.73
2019-05-10T09:20:20.172Z,11.00
2019-05-10T09:22:42.440Z,9.20
2019-05-10T09:25:15.364Z,9.69
2019-05-10T09:27:43.466Z,8.93
2019-05-10T09:30:14.058Z,8.97
2019-05-10T09:32:43.195Z,8.64
2019-05-10T09:35:12.531Z,8.35
2019-05-10T09:37:42.066Z,9.13
2019-05-10T09:40:12.340Z,9.16
2019-05-10T09:42:40.789Z,9.24
2019-05-10T09:45:09.777Z,9.52
2019-05-10T09:47:37.324Z,11.59
2019-05-10T09:50:05.204Z,11.59
2019-05-10T09:52:32.494Z,13.02
2019-05-10T09:55:03.943Z,14.24
2019-05-10T09:57:32.301Z,16.35
2019-05-10T09:59:59.856Z,17.83
2019-05-10T10:02:33.635Z,19.94
2019-05-10T10:04:58.952Z,22.01
2019-05-10T10:07:33.362Z,24.33
2019-05-10T10:09:57.845Z,25.54
2019-05-10T10:12:25.466Z,28.01
2019-05-10T10:14:52.778Z,28.26
2019-05-10T10:17:20.680Z,30.24
2019-05-10T10:19:50.373Z,27.95
2019-05-10T10:22:19.856Z,27.33
2019-05-10T10:24:49.198Z,28.36
2019-05-10T10:27:18.208Z,28.22
2019-05-10T10:29:47.495Z,29.37
2019-05-10T10:32:15.287Z,29.50
2019-05-10T10:34:43.225Z,30.48
2019-05-10T10:37:14.835Z,30.37
2019-05-10T10:39:42.136Z,29.84
2019-05-10T10:42:13.074Z,27.72
2019-05-10T10:44:39.115Z,29.48
2019-05-10T10:47:08.250Z,29.97
2019-05-10T10:49:37.654Z,29.24
2019-05-10T10:52:05.733Z,29.04
2019-05-10T10:54:37.440Z,30.12
2019-05-10T10:57:03.265Z,30.02
2019-05-10T10:59:30.503Z,28.51
2019-05-10T11:02:27.467Z,27.44
2019-05-10T11:04:27.287Z,28.33
2019-05-10T11:07:09.285Z,26.62
2019-05-10T11:09:24.379Z,27.12
2019-05-10T11:11:52.216Z,29.60
2019-05-10T11:14:20.636Z,28.18
2019-05-10T11:16:52.828Z,28.93
2019-05-10T11:19:17.128Z,30.00
2019-05-10T11:21:44.626Z,28.48
2019-05-10T11:24:17.999Z,28.56
2019-05-10T11:26:44.690Z,29.48
2019-05-10T11:29:14.193Z,29.10
2019-05-10T11:31:41.510Z,29.68
2019-05-10T11:34:09.152Z,29.79
2019-05-10T11:36:40.494Z,30.10
2019-05-10T11:39:06.279Z,28.93
2019-05-10T11:41:37.007Z,28.43
2019-05-10T11:44:08.839Z,29.31
2019-05-10T11:46:35.854Z,29.67
2019-05-10T11:49:05.602Z,29.86
2019-05-10T11:51:33.449Z,29.33
2019-05-10T11:54:01.388Z,27.90
2019-05-10T11:56:32.041Z,28.36
2019-05-10T11:59:02.174Z,27.98
2019-05-10T12:01:28.361Z,28.53
2019-05-10T12:03:55.740Z,28.50
2019-05-10T12:06:23.325Z,29.59
2019-05-10T12:08:56.797Z,27.41
2019-05-10T12:11:29.300Z,28.31
2019-05-10T12:13:52.857Z,28.33
2019-05-10T12:16:21.453Z,29.19
2019-05-10T12:19:02.334Z,28.71
2019-05-10T12:21:21.682Z,27.79
2019-05-10T12:23:54.836Z,29.02
2019-05-10T12:28:47.851Z,28.75
2019-05-10T12:31:21.113Z,28.65
2019-05-10T12:33:51.658Z,27.50
2019-05-10T12:36:25.587Z,26.84
2019-05-10T12:38:53.316Z,26.76
2019-05-10T12:41:23.370Z,26.39
2019-05-10T12:43:51.728Z,26.23
2019-05-10T12:46:20.681Z,26.63
2019-05-10T12:48:51.616Z,27.76
2019-05-10T12:51:21.196Z,26.11
2019-05-10T12:53:52.171Z,27.16
2019-05-10T12:56:19.076Z,26.31
2019-05-10T12:58:56.360Z,26.01
2019-05-10T13:01:16.544Z,25.52
2019-05-10T13:03:45.315Z,26.05
2019-05-10T13:06:19.596Z,26.52
2019-05-10T13:08:46.334Z,27.02
2019-05-10T13:11:18.854Z,26.99
2019-05-10T13:13:52.030Z,27.19
2019-05-10T13:16:22.506Z,27.21
2019-05-10T13:18:52.296Z,27.56
2019-05-10T13:21:20.693Z,27.72
2019-05-10T13:24:02.608Z,27.99
2019-05-10T13:26:32.259Z,27.75
2019-05-10T13:29:08.033Z,29.33
2019-05-10T13:31:42.112Z,29.00
2019-05-10T13:34:04.556Z,28.46
2019-05-10T13:36:37.382Z,29.47
2019-05-10T13:39:04.945Z,29.53
2019-05-10T13:41:32.635Z,29.15
2019-05-10T13:44:04.803Z,28.29
2019-05-10T13:46:29.286Z,29.42
2019-05-10T13:48:56.732Z,28.04
2019-05-10T13:51:27.634Z,28.57
2019-05-10T13:53:59.026Z,28.22
2019-05-10T13:56:24.624Z,27.33
2019-05-10T13:58:51.951Z,28.49
2019-05-10T14:01:19.354Z,27.34
2019-05-10T14:03:53.841Z,27.97
2019-05-10T14:06:20.662Z,27.84
2019-05-10T14:08:50.450Z,27.89
2019-05-10T14:11:19.208Z,27.86
2019-05-10T14:13:48.758Z,27.73
2019-05-10T14:16:19.879Z,28.16
2019-05-10T14:18:49.649Z,28.50
2019-05-10T14:21:17.179Z,27.68
2019-05-10T14:23:57.338Z,28.43
2019-05-10T14:26:31.574Z,28.55
2019-05-10T14:29:39.328Z,28.76
2019-05-10T14:32:05.730Z,27.95
2019-05-10T14:34:37.726Z,29.27
2019-05-10T14:37:03.179Z,28.39
2019-05-10T14:39:30.424Z,27.89
2019-05-10T14:42:09.320Z,28.20
2019-05-10T14:44:41.847Z,27.55
2019-05-10T14:47:11.252Z,28.04
2019-05-10T14:49:49.522Z,28.81
2019-05-10T14:52:17.193Z,28.31
2019-05-10T14:54:49.973Z,27.96
2019-05-10T14:57:13.722Z,28.07
2019-05-10T14:59:41.093Z,28.66
2019-05-10T15:02:08.570Z,29.60
2019-05-10T15:04:46.476Z,28.82
2019-05-10T15:07:14.469Z,27.56
2019-05-10T15:09:54.218Z,27.87
2019-05-10T15:12:22.699Z,28.61
2019-05-10T15:14:49.294Z,29.02
2019-05-10T15:17:19.772Z,27.57
2019-05-10T15:19:56.374Z,27.73
2019-05-10T15:22:18.436Z,28.01
2019-05-10T15:24:45.869Z,27.68
2019-05-10T15:27:16.229Z,28.53
2019-05-10T15:29:42.559Z,28.68
2019-05-10T15:32:12.208Z,27.37
2019-05-10T15:35:02.829Z,28.47
2019-05-10T15:37:13.086Z,27.26
2019-05-10T15:39:40.430Z,27.49
2019-05-10T15:42:08.306Z,27.06
2019-05-10T15:44:36.161Z,27.31
2019-05-10T15:47:03.395Z,27.93
2019-05-10T15:49:32.921Z,27.87
2019-05-10T15:54:37.994Z,28.13
2019-05-10T15:57:02.306Z,27.29
2019-05-10T15:59:23.911Z,27.28
2019-05-10T15:59:29.611Z,26.99
2019-05-10T16:01:57.144Z,26.05
2019-05-10T16:04:24.701Z,26.17
2019-05-10T16:06:51.895Z,25.62
2019-05-10T16:09:21.171Z,25.18
2019-05-10T16:11:50.255Z,24.56
2019-05-10T16:14:17.642Z,24.60
2019-05-10T16:16:45.766Z,24.48
2019-05-10T16:19:18.588Z,25.50
2019-05-10T16:21:46.605Z,25.77
2019-05-10T16:24:13.559Z,25.91
2019-05-10T16:26:41.097Z,26.59
2019-05-10T16:29:08.549Z,26.76
2019-05-10T16:31:36.601Z,26.59
2019-05-10T16:34:06.598Z,26.37
2019-05-10T16:36:35.156Z,26.70
2019-05-10T16:39:04.776Z,27.54
2019-05-10T16:41:32.158Z,27.69
2019-05-10T16:44:00.166Z,27.79
2019-05-10T16:46:29.264Z,27.73
2019-05-10T16:48:56.613Z,28.16
2019-05-10T16:51:23.856Z,28.12
2019-05-10T16:53:52.745Z,28.10
2019-05-10T16:56:21.325Z,28.81
2019-05-10T16:58:53.104Z,27.83
2019-05-10T17:01:18.739Z,28.40
2019-05-10T17:03:51.152Z,28.71
2019-05-10T17:06:16.996Z,28.55
2019-05-10T17:08:44.204Z,28.79
2019-05-10T17:11:11.930Z,29.05
2019-05-10T17:13:41.472Z,29.69
2019-05-10T17:16:11.612Z,29.33
2019-05-10T17:18:38.745Z,30.14
2019-05-10T17:21:07.252Z,30.12
2019-05-10T17:23:34.861Z,30.85
2019-05-10T17:26:02.247Z,31.42
2019-05-10T17:28:35.254Z,30.34
2019-05-10T17:31:00.115Z,30.92
2019-05-10T17:33:29.006Z,31.15
2019-05-10T17:36:07.910Z,30.52
2019-05-10T17:38:31.641Z,30.82
2019-05-10T17:41:10.947Z,31.16
2019-05-10T17:43:40.318Z,30.70
2019-05-10T17:46:12.757Z,30.52
2019-05-10T17:48:40.846Z,30.16
2019-05-10T17:51:09.815Z,30.84
2019-05-10T17:53:37.638Z,30.77
2019-05-10T17:56:05.064Z,31.40
2019-05-10T17:58:33.951Z,31.57
2019-05-10T18:01:02.093Z,32.40
2019-05-10T18:03:29.814Z,32.77
2019-05-10T18:05:57.110Z,32.31
2019-05-10T18:08:25.517Z,33.61
2019-05-10T18:10:57.340Z,33.22
2019-05-10T18:13:22.664Z,32.97
2019-05-10T18:15:50.029Z,34.07
2019-05-10T18:18:17.329Z,34.36
2019-05-10T18:21:02.024Z,34.35
2019-05-10T18:23:29.294Z,34.52
2019-05-10T18:25:58.500Z,34.91
2019-05-10T18:28:30.463Z,35.83
2019-05-10T18:30:57.828Z,36.53
2019-05-10T18:33:27.285Z,37.03
2019-05-10T18:35:54.899Z,36.57
2019-05-10T18:38:30.795Z,36.93
2019-05-10T18:40:55.175Z,37.44
2019-05-10T18:43:22.779Z,38.09
2019-05-10T18:45:50.038Z,38.56
2019-05-10T18:48:28.064Z,38.84
2019-05-10T18:50:55.524Z,39.50
2019-05-10T18:53:23.109Z,40.05
2019-05-10T18:55:50.689Z,40.70
2019-05-10T18:58:23.341Z,40.61
2019-05-10T19:00:47.171Z,40.95
2019-05-10T19:03:14.522Z,41.12
2019-05-10T19:05:41.755Z,41.82
2019-05-10T19:08:09.011Z,41.98
2019-05-10T19:10:36.479Z,42.33
2019-05-10T19:13:05.577Z,42.49
2019-05-10T19:15:33.311Z,42.73
2019-05-10T19:18:00.705Z,43.02
2019-05-10T19:20:28.711Z,42.99
2019-05-10T19:22:56.491Z,43.28
2019-05-10T19:25:23.891Z,42.18
2019-05-10T19:27:52.203Z,42.88
2019-05-10T19:30:20.681Z,42.17
2019-05-10T19:32:50.970Z,41.48
2019-05-10T19:35:18.734Z,41.55
2019-05-10T19:37:46.066Z,42.70
2019-05-10T19:40:14.154Z,42.49
2019-05-10T19:42:43.074Z,42.64
2019-05-10T19:45:13.069Z,42.44
2019-05-10T19:47:40.662Z,42.38
2019-05-10T19:50:08.471Z,42.62
2019-05-10T19:52:36.817Z,42.96
2019-05-10T19:55:04.371Z,42.68
2019-05-10T19:57:32.243Z,42.28
2019-05-10T19:59:59.678Z,42.71
2019-05-10T20:02:28.098Z,42.85
2019-05-10T20:04:55.528Z,43.27
2019-05-10T20:07:22.961Z,42.89
2019-05-10T20:09:53.454Z,42.40
2019-05-10T20:12:20.728Z,42.44
2019-05-10T20:14:48.234Z,43.24
2019-05-10T20:17:15.722Z,43.74
2019-05-10T20:19:43.618Z,45.15
2019-05-10T20:22:11.621Z,47.35
2019-05-10T20:24:39.103Z,48.24
2019-05-10T20:27:06.530Z,48.46
2019-05-10T20:29:33.910Z,48.61
2019-05-10T20:32:01.384Z,49.30
2019-05-10T20:34:29.291Z,49.27
2019-05-10T20:36:56.632Z,49.90
2019-05-10T20:39:24.855Z,50.11
2019-05-10T20:41:52.125Z,49.79
2019-05-10T20:44:19.476Z,50.10
2019-05-10T20:46:47.217Z,51.06
2019-05-10T20:49:14.414Z,51.52
2019-05-10T20:51:41.694Z,51.88
2019-05-10T20:54:09.246Z,52.15
2019-05-10T20:56:36.458Z,52.29
2019-05-10T20:59:03.809Z,52.68
2019-05-10T21:01:31.112Z,52.96
2019-05-10T21:03:58.718Z,53.25
2019-05-10T21:06:26.031Z,53.33
2019-05-10T21:08:53.462Z,53.65
2019-05-10T21:11:20.671Z,53.81
2019-05-10T21:13:48.619Z,54.18
2019-05-10T21:16:16.536Z,53.90
2019-05-10T21:18:44.418Z,52.38
2019-05-10T21:21:12.515Z,50.88
2019-05-10T21:23:39.944Z,51.36
2019-05-10T21:26:07.380Z,51.14
2019-05-10T21:28:34.780Z,52.77
2019-05-10T21:31:02.036Z,53.86
2019-05-10T21:33:29.731Z,54.44
2019-05-10T21:35:57.514Z,54.81
2019-05-10T21:38:33.060Z,54.85
2019-05-10T21:40:55.329Z,55.11
2019-05-10T21:43:22.860Z,55.26
2019-05-10T21:45:50.081Z,55.42
2019-05-10T21:48:17.831Z,55.88
2019-05-10T21:50:45.325Z,55.75
2019-05-10T21:53:14.190Z,55.83
2019-05-10T21:55:41.587Z,55.92
2019-05-10T21:58:08.925Z,55.86
2019-05-10T22:00:40.605Z,55.99
2019-05-10T22:03:08.600Z,57.74
2019-05-10T22:05:36.658Z,57.05
2019-05-10T22:08:04.673Z,57.17
2019-05-10T22:10:32.903Z,57.09
2019-05-10T22:13:00.513Z,57.04
2019-05-10T22:15:27.854Z,56.96
2019-05-10T22:17:55.101Z,56.88
2019-05-10T22:20:23.007Z,56.61
2019-05-10T22:22:50.198Z,56.43
2019-05-10T22:25:17.478Z,56.90
2019-05-10T22:27:45.043Z,57.16
2019-05-10T22:30:13.227Z,57.33
2019-05-10T22:32:41.098Z,57.47
2019-05-10T22:35:09.734Z,57.53
2019-05-10T22:37:37.244Z,57.51
2019-05-10T22:40:04.612Z,57.77
2019-05-10T22:42:32.432Z,58.00
2019-05-10T22:45:00.388Z,58.06
2019-05-10T22:47:27.604Z,58.10
2019-05-10T22:49:55.213Z,58.21
2019-05-10T22:52:22.484Z,58.32
2019-05-10T22:54:50.892Z,58.51
2019-05-10T22:57:18.448Z,58.71
2019-05-10T22:59:46.000Z,58.73
2019-05-10T23:02:14.216Z,58.45
2019-05-10T23:04:41.704Z,59.07
2019-05-10T23:07:09.287Z,59.32
2019-05-10T23:09:37.981Z,59.58
2019-05-10T23:12:06.019Z,59.47
2019-05-10T23:14:33.853Z,60.17
2019-05-10T23:17:01.454Z,60.46
2019-05-10T23:19:29.142Z,60.43
2019-05-10T23:21:57.725Z,60.20
2019-05-10T23:24:38.988Z,60.55
2019-05-10T23:27:06.809Z,63.01
2019-05-10T23:29:35.270Z,64.95
2019-05-10T23:32:03.178Z,68.46
2019-05-10T23:34:30.441Z,69.42
2019-05-10T23:36:57.693Z,69.96
2019-05-10T23:39:39.588Z,71.41
2019-05-10T23:41:54.507Z,71.48
2019-05-10T23:44:22.878Z,71.74
2019-05-10T23:46:50.090Z,71.87
2019-05-10T23:49:17.699Z,72.33
2019-05-10T23:51:45.422Z,71.73
2019-05-10T23:54:13.310Z,71.14
2019-05-10T23:56:41.001Z,71.11
2019-05-10T23:59:08.260Z,70.51
